Time;durP1;ratioP1;P1;durP2;ratioP2;P2;SDS_P1;SDS_P2;PMS_P1;PMS_P2;Temp;Humidity;BMP_temperature;BMP_pressure;BME280_temperature;BME280_humidity;BME280_pressure;Samples;Min_cycle;Max_cycle;Signal;HPM_P1;HPM_P2
2023/12/02 00:00:20;;;;;;;79.93;36.67;;;;;;;-144.73;100.00;54662.22;4953315;28;20026;-75
2023/12/02 00:02:45;;;;;;;88.97;39.77;;;;;;;-144.73;100.00;54637.59;4953896;28;20033;-74
2023/12/02 00:05:11;;;;;;;76.77;35.93;;;;;;;-144.73;100.00;54645.78;4956361;28;20023;-75
2023/12/02 00:07:36;;;;;;;81.93;36.70;;;;;;;-144.73;100.00;54649.91;4955607;28;20049;-75
2023/12/02 00:10:02;;;;;;;79.73;36.17;;;;;;;-144.73;100.00;54656.06;4961200;28;20429;-75
2023/12/02 00:12:28;;;;;;;75.13;35.47;;;;;;;-144.73;100.00;54670.44;4953122;28;20031;-76
2023/12/02 00:14:53;;;;;;;64.43;30.57;;;;;;;-144.73;100.00;54670.44;4955134;28;20132;-75
2023/12/02 00:17:18;;;;;;;76.03;36.03;;;;;;;-144.73;100.00;54695.06;4956797;28;20023;-75
2023/12/02 00:19:44;;;;;;;72.97;33.50;;;;;;;-144.73;100.00;54658.13;4954684;28;20102;-75
2023/12/02 00:22:09;;;;;;;64.43;32.13;;;;;;;-144.73;100.00;54645.78;4957360;28;20023;-75
2023/12/02 00:24:34;;;;;;;70.17;34.73;;;;;;;-144.73;100.00;54707.38;4964066;28;20039;-75
2023/12/02 00:27:00;;;;;;;69.47;35.43;;;;;;;-144.73;100.00;54686.84;4964636;28;20027;-75
2023/12/02 00:29:25;;;;;;;65.97;32.00;;;;;;;-144.73;100.00;54658.13;4965209;28;20047;-76
2023/12/02 00:31:51;;;;;;;75.00;34.17;;;;;;;-144.73;100.00;54662.22;4970480;28;20027;-75
2023/12/02 00:34:16;;;;;;;67.07;32.57;;;;;;;-144.73;100.00;54678.63;4967709;28;20071;-76
2023/12/02 00:36:45;;;;;;;67.43;32.90;;;;;;;-144.73;100.00;54658.13;4959425;28;20023;-75
2023/12/02 00:39:10;;;;;;;59.50;30.60;;;;;;;-144.73;100.00;54645.78;4957461;28;20042;-76
2023/12/02 00:41:36;;;;;;;61.37;30.67;;;;;;;-144.73;100.00;54645.78;4955049;28;20117;-76
2023/12/02 00:44:01;;;;;;;78.23;32.67;;;;;;;-144.73;100.00;54658.13;4945117;28;20039;-74
2023/12/02 00:46:27;;;;;;;61.97;29.70;;;;;;;-144.73;100.00;54662.22;4955974;28;20019;-74
2023/12/02 00:48:52;;;;;;;65.70;32.77;;;;;;;-144.73;100.00;54715.59;4960533;28;20042;-73
2023/12/02 00:51:17;;;;;;;69.67;34.33;;;;;;;-144.73;100.00;54645.78;4967777;28;20066;-73
2023/12/02 00:53:44;;;;;;;57.53;28.13;;;;;;;-144.73;100.00;54682.75;4961385;28;20031;-74
2023/12/02 00:56:10;;;;;;;70.67;31.37;;;;;;;-144.73;100.00;54662.22;4963810;28;20031;-74
2023/12/02 00:58:35;;;;;;;58.03;29.97;;;;;;;-144.73;100.00;54662.22;4949321;28;20050;-73
2023/12/02 01:01:00;;;;;;;63.23;30.63;;;;;;;-144.73;100.00;54641.69;4956069;28;20025;-74
2023/12/02 01:03:26;;;;;;;66.07;30.30;;;;;;;-144.73;100.00;54647.84;4954200;28;20039;-74
2023/12/02 01:05:51;;;;;;;76.63;33.77;;;;;;;-144.73;100.00;54686.84;4961773;28;20487;-74
2023/12/02 01:08:17;;;;;;;68.43;31.63;;;;;;;-144.73;100.00;54637.59;4961458;28;20039;-74
2023/12/02 01:10:42;;;;;;;61.17;32.43;;;;;;;-144.73;100.00;54654.00;4955660;28;20062;-74
2023/12/02 01:13:07;;;;;;;57.93;29.13;;;;;;;-144.73;100.00;54658.13;4964180;28;20030;-74
2023/12/02 01:15:33;;;;;;;53.67;27.73;;;;;;;-144.73;100.00;54645.78;4956498;28;20027;-74
2023/12/02 01:17:58;;;;;;;70.07;33.43;;;;;;;-144.73;100.00;54699.16;4965446;28;20035;-74
2023/12/02 01:20:23;;;;;;;56.10;27.57;;;;;;;-144.73;100.00;54715.59;4955540;28;20031;-75
2023/12/02 01:22:49;;;;;;;54.17;28.83;;;;;;;-144.73;100.00;54654.00;4958508;28;20106;-74
2023/12/02 01:25:14;;;;;;;54.47;28.57;;;;;;;-144.73;100.00;54674.53;4952898;28;20023;-74
2023/12/02 01:27:40;;;;;;;53.57;27.67;;;;;;;-144.73;100.00;54645.78;4952336;28;20023;-75
2023/12/02 01:30:06;;;;;;;64.17;30.43;;;;;;;-144.73;100.00;54649.91;4936581;29;20047;-74
2023/12/02 01:32:34;;;;;;;55.50;28.73;;;;;;;-144.73;100.00;54670.44;4936986;29;20064;-74
2023/12/02 01:35:02;;;;;;;52.53;26.80;;;;;;;-144.73;100.00;54649.91;4931981;29;20040;-74
2023/12/02 01:37:28;;;;;;;50.63;27.37;;;;;;;-144.73;100.00;54670.44;4944272;29;20023;-75
2023/12/02 01:39:53;;;;;;;56.00;26.80;;;;;;;-144.73;100.00;54703.28;4939601;29;20036;-74
2023/12/02 01:42:19;;;;;;;56.70;28.37;;;;;;;-144.73;100.00;54629.38;4936021;29;20024;-74
2023/12/02 01:44:44;;;;;;;59.30;28.80;;;;;;;-144.73;100.00;54643.75;4931101;28;20063;-75
2023/12/02 01:47:10;;;;;;;62.93;29.63;;;;;;;-144.73;100.00;54645.78;4933330;29;20063;-74
2023/12/02 01:49:37;;;;;;;57.57;29.63;;;;;;;-144.73;100.00;54670.44;4942883;28;20054;-73
2023/12/02 01:52:03;;;;;;;63.83;29.37;;;;;;;-144.73;100.00;54680.69;4936139;29;20126;-74
2023/12/02 01:54:28;;;;;;;59.83;27.10;;;;;;;-144.73;100.00;54697.13;4944610;29;20051;-75
2023/12/02 01:56:54;;;;;;;55.77;27.27;;;;;;;-144.73;100.00;54619.13;4939610;29;20546;-75
2023/12/02 01:59:22;;;;;;;51.87;28.27;;;;;;;-144.73;100.00;54701.22;4959655;28;20098;-74
2023/12/02 02:01:48;;;;;;;54.17;27.23;;;;;;;-144.73;100.00;54629.38;4954662;28;20031;-74
2023/12/02 02:04:13;;;;;;;59.47;28.23;;;;;;;-144.73;100.00;54637.59;4950927;28;20036;-74
2023/12/02 02:06:42;;;;;;;49.97;26.53;;;;;;;-144.73;100.00;54670.44;4954612;28;20051;-74
2023/12/02 02:09:08;;;;;;;53.93;26.57;;;;;;;-144.73;100.00;54658.13;4954620;28;20046;-73
2023/12/02 02:11:33;;;;;;;61.87;29.00;;;;;;;-144.73;100.00;54635.53;4954158;28;20045;-74
2023/12/02 02:13:59;;;;;;;56.77;27.60;;;;;;;-144.73;100.00;54654.00;4951790;28;20035;-74
2023/12/02 02:16:27;;;;;;;56.50;25.97;;;;;;;-144.73;100.00;54637.59;4956615;28;20031;-74
2023/12/02 02:18:52;;;;;;;50.40;24.97;;;;;;;-144.73;100.00;54662.22;4948300;28;20043;-74
2023/12/02 02:21:21;;;;;;;50.57;26.37;;;;;;;-144.73;100.00;54670.44;4945659;28;20158;-74
2023/12/02 02:23:47;;;;;;;46.83;25.57;;;;;;;-144.73;100.00;54662.22;4951740;28;20062;-74
2023/12/02 02:26:12;;;;;;;58.00;27.70;;;;;;;-144.73;100.00;54682.75;4953668;28;20027;-74
2023/12/02 02:28:41;;;;;;;59.00;27.53;;;;;;;-144.73;100.00;54670.44;4949957;28;20187;-74
2023/12/02 02:31:06;;;;;;;55.47;26.50;;;;;;;-144.73;100.00;54690.97;4953960;28;20098;-74
2023/12/02 02:33:35;;;;;;;60.77;27.77;;;;;;;-144.73;100.00;54680.69;4957472;28;20175;-75
2023/12/02 02:36:00;;;;;;;60.20;26.73;;;;;;;-144.73;100.00;54682.75;4951608;28;20134;-75
2023/12/02 02:38:26;;;;;;;61.07;26.97;;;;;;;-144.73;100.00;54674.53;4954323;28;20195;-75
2023/12/02 02:40:51;;;;;;;54.67;25.87;;;;;;;-144.73;100.00;54678.63;4955355;28;20062;-75
2023/12/02 02:43:17;;;;;;;65.07;27.10;;;;;;;-144.73;100.00;54662.22;4953639;28;20042;-74
2023/12/02 02:45:42;;;;;;;57.73;29.33;;;;;;;-144.73;100.00;54695.06;4970974;28;20027;-74
2023/12/02 02:48:08;;;;;;;54.23;25.40;;;;;;;-144.73;100.00;54604.75;4957487;28;20039;-74
2023/12/02 02:50:37;;;;;;;68.83;27.83;;;;;;;-144.73;100.00;54639.63;4954188;28;20114;-75
2023/12/02 02:53:02;;;;;;;62.47;27.90;;;;;;;-144.73;100.00;54678.63;4955227;28;20039;-75
2023/12/02 02:55:27;;;;;;;62.90;28.40;;;;;;;-144.73;100.00;54662.22;4962070;28;20022;-74
2023/12/02 02:57:53;;;;;;;54.13;26.23;;;;;;;-144.73;100.00;54674.53;4950083;28;20040;-74
2023/12/02 03:00:18;;;;;;;59.47;28.17;;;;;;;-144.73;100.00;54670.44;4960293;28;20054;-74
2023/12/02 03:02:44;;;;;;;55.77;26.87;;;;;;;-144.73;100.00;54670.44;4978650;28;20039;-74
2023/12/02 03:05:10;;;;;;;58.23;28.63;;;;;;;-144.73;100.00;54637.59;4951976;28;20047;-75
2023/12/02 03:07:35;;;;;;;56.30;26.97;;;;;;;-144.73;100.00;54682.75;4957395;28;20029;-75
2023/12/02 03:10:00;;;;;;;53.33;24.60;;;;;;;-144.73;100.00;54695.06;4952315;28;20062;-73
2023/12/02 03:12:29;;;;;;;65.63;29.53;;;;;;;-144.73;100.00;54649.91;4956058;28;20249;-75
2023/12/02 03:14:58;;;;;;;53.27;26.20;;;;;;;-144.73;100.00;54649.91;4954495;28;20043;-76
2023/12/02 03:17:30;;;;;;;50.67;26.57;;;;;;;-144.73;100.00;54682.75;4962905;28;20124;-76
2023/12/02 03:20:21;;;;;;;;;;;;;;;;;;;;;
2023/12/02 03:22:57;;;;;;;;;;;;;;;;;;;;;
2023/12/02 03:25:55;;;;;;;56.97;26.40;;;;;;;-144.73;100.00;54678.63;4880805;29;20591;-76
2023/12/02 03:28:29;;;;;;;65.13;28.93;;;;;;;-144.73;100.00;54686.84;4952934;28;20093;-75
2023/12/02 03:30:56;;;;;;;62.20;28.20;;;;;;;-144.73;100.00;54670.44;4962723;28;20035;-75
2023/12/02 03:33:21;;;;;;;63.23;29.33;;;;;;;-144.73;100.00;54690.97;4957015;28;20109;-75
2023/12/02 03:35:46;;;;;;;65.67;27.80;;;;;;;-144.73;100.00;54670.44;4949043;28;20032;-75
2023/12/02 03:38:12;;;;;;;62.40;29.33;;;;;;;-144.73;100.00;54695.06;4947185;28;20467;-75
2023/12/02 03:40:37;;;;;;;62.72;27.92;;;;;;;-144.73;100.00;54649.91;4955023;28;20031;-75
2023/12/02 03:43:06;;;;;;;62.37;26.93;;;;;;;-144.73;100.00;54621.16;4951114;28;20039;-74
2023/12/02 03:45:31;;;;;;;66.70;29.23;;;;;;;-144.73;100.00;54678.63;4951404;28;20023;-75
2023/12/02 03:47:59;;;;;;;65.40;29.17;;;;;;;-144.73;100.00;54672.47;4987367;28;20042;-74
2023/12/02 03:50:25;;;;;;;71.73;30.07;;;;;;;-144.73;100.00;54637.59;4961483;28;20023;-77
2023/12/02 03:52:50;;;;;;;64.30;28.30;;;;;;;-144.73;100.00;54654.00;4969714;28;20049;-74
2023/12/02 03:55:16;;;;;;;71.57;31.10;;;;;;;-144.73;100.00;54637.59;4966292;28;20113;-75
2023/12/02 03:57:41;;;;;;;77.47;32.93;;;;;;;-144.73;100.00;54670.44;4953601;28;20026;-74
2023/12/02 04:00:19;;;;;;;69.40;30.20;;;;;;;-144.73;100.00;54641.69;4957060;28;20065;-76
2023/12/02 04:02:46;;;;;;;70.67;31.00;;;;;;;-144.73;100.00;54686.84;4956707;28;20038;-74
2023/12/02 04:05:13;;;;;;;66.60;27.97;;;;;;;-144.73;100.00;54654.00;4953603;28;20023;-75
2023/12/02 04:07:39;;;;;;;72.07;31.17;;;;;;;-144.73;100.00;54695.06;4950360;28;20023;-75
2023/12/02 04:10:09;;;;;;;62.95;29.85;;;;;;;-144.73;100.00;54697.13;4961572;28;20032;-76
2023/12/02 04:12:34;;;;;;;66.72;29.65;;;;;;;-144.73;100.00;54719.69;4956613;28;20031;-74
2023/12/02 04:15:00;;;;;;;67.80;30.13;;;;;;;-144.73;100.00;54711.47;4951699;28;20019;-75
2023/12/02 04:17:26;;;;;;;63.30;27.85;;;;;;;-144.73;100.00;54629.38;4950040;28;20035;-75
2023/12/02 04:19:52;;;;;;;66.63;28.93;;;;;;;-144.73;100.00;54686.84;4947738;28;20122;-75
2023/12/02 04:22:19;;;;;;;65.77;29.17;;;;;;;-144.73;100.00;54625.28;4954299;28;20106;-75
2023/12/02 04:24:45;;;;;;;65.87;29.63;;;;;;;-144.73;100.00;54674.53;4951270;28;20042;-75
2023/12/02 04:27:11;;;;;;;61.33;29.03;;;;;;;-144.73;100.00;54654.00;4947251;28;20022;-74
2023/12/02 04:29:40;;;;;;;62.53;29.70;;;;;;;-144.73;100.00;54670.44;4945994;28;20118;-75
2023/12/02 04:32:06;;;;;;;55.90;26.60;;;;;;;-144.73;100.00;54670.44;4949759;28;20034;-75
2023/12/02 04:34:32;;;;;;;51.70;27.98;;;;;;;-144.73;100.00;54649.91;4947517;28;20027;-74
2023/12/02 04:36:57;;;;;;;60.60;29.10;;;;;;;-144.73;100.00;54662.22;4959955;28;20035;-74
2023/12/02 04:39:25;;;;;;;60.40;28.47;;;;;;;-144.73;100.00;54688.91;4955260;28;20066;-74
2023/12/02 04:41:51;;;;;;;64.05;29.52;;;;;;;-144.73;100.00;54641.69;4982632;28;20043;-74
2023/12/02 04:44:17;;;;;;;66.82;31.27;;;;;;;-144.73;100.00;54625.28;4958152;28;20228;-74
2023/12/02 04:46:43;;;;;;;60.37;28.47;;;;;;;-144.73;100.00;54674.53;4960823;28;20027;-74
2023/12/02 04:49:08;;;;;;;63.23;29.30;;;;;;;-144.73;100.00;54647.84;4961881;28;20035;-74
2023/12/02 04:51:33;;;;;;;63.80;27.83;;;;;;;-144.73;100.00;54641.69;4955926;28;20050;-75
2023/12/02 04:53:59;;;;;;;60.77;29.00;;;;;;;-144.73;100.00;54670.44;4955472;28;20039;-75
2023/12/02 04:56:30;;;;;;;67.10;28.93;;;;;;;-144.73;100.00;54680.69;4952286;28;20033;-75
2023/12/02 04:58:56;;;;;;;78.93;33.08;;;;;;;-144.73;100.00;54662.22;4950292;28;20032;-75
2023/12/02 05:01:24;;;;;;;65.97;29.10;;;;;;;-144.73;100.00;54645.78;4953710;28;20011;-75
2023/12/02 05:03:52;;;;;;;64.33;28.10;;;;;;;-144.73;100.00;54658.13;4959835;28;20114;-75
2023/12/02 05:06:18;;;;;;;68.35;30.35;;;;;;;-144.73;100.00;54670.44;4961339;28;20062;-75
2023/12/02 05:08:52;;;;;;;61.42;29.90;;;;;;;-144.73;100.00;54690.97;4958504;28;20027;-75
2023/12/02 05:11:21;;;;;;;58.05;28.60;;;;;;;-144.73;100.00;54641.69;4961962;28;20023;-75
2023/12/02 05:13:47;;;;;;;54.90;27.67;;;;;;;-144.73;100.00;54654.00;4959081;28;20031;-75
2023/12/02 05:16:14;;;;;;;70.93;32.63;;;;;;;-144.73;100.00;54676.59;4948726;28;20023;-75
2023/12/02 05:18:40;;;;;;;66.35;27.75;;;;;;;-144.73;100.00;54670.44;4961620;28;20034;-73
2023/12/02 05:21:06;;;;;;;58.67;27.90;;;;;;;-144.73;100.00;54674.53;4959242;28;20024;-73
2023/12/02 05:23:32;;;;;;;66.27;31.23;;;;;;;-144.73;100.00;54670.44;4956970;28;20034;-73
2023/12/02 05:25:57;;;;;;;69.20;30.53;;;;;;;-144.73;100.00;54631.44;4957939;28;20018;-73
2023/12/02 05:28:23;;;;;;;71.07;30.47;;;;;;;-144.73;100.00;54682.75;4971063;28;20050;-74
2023/12/02 05:30:48;;;;;;;63.53;31.43;;;;;;;-144.73;100.00;54645.78;4965957;28;20062;-74
2023/12/02 05:33:14;;;;;;;71.57;31.60;;;;;;;-144.73;100.00;54690.97;4962083;28;20047;-74
2023/12/02 05:35:39;;;;;;;64.38;29.33;;;;;;;-144.73;100.00;54715.59;4961858;28;20027;-74
2023/12/02 05:38:05;;;;;;;68.10;30.75;;;;;;;-144.73;100.00;54678.63;4949197;28;20031;-74
2023/12/02 05:40:30;;;;;;;68.70;33.23;;;;;;;-144.73;100.00;54629.38;4962493;28;20023;-75
2023/12/02 05:42:57;;;;;;;68.60;32.30;;;;;;;-144.73;100.00;54670.44;4955826;28;20035;-75
2023/12/02 05:45:23;;;;;;;59.33;28.25;;;;;;;-144.73;100.00;54654.00;4955504;28;20038;-74
2023/12/02 05:47:49;;;;;;;59.28;28.15;;;;;;;-144.73;100.00;54631.44;4948335;28;20101;-75
2023/12/02 05:50:14;;;;;;;66.45;32.60;;;;;;;-144.73;100.00;54674.53;4971345;28;20027;-74
2023/12/02 05:52:43;;;;;;;55.83;26.17;;;;;;;-144.73;100.00;54654.00;4951373;28;20022;-77
2023/12/02 05:55:08;;;;;;;70.07;31.50;;;;;;;-144.73;100.00;54727.91;4954107;28;20015;-74
2023/12/02 05:57:34;;;;;;;67.40;32.50;;;;;;;-144.73;100.00;54645.78;4951474;28;20027;-74
2023/12/02 05:59:59;;;;;;;57.13;26.90;;;;;;;-144.73;100.00;54629.38;4957146;28;20157;-74
2023/12/02 06:02:25;;;;;;;64.03;29.83;;;;;;;-144.73;100.00;54684.78;4949688;28;20023;-75
2023/12/02 06:04:51;;;;;;;73.70;30.30;;;;;;;-144.73;100.00;54629.38;4955734;28;20515;-74
2023/12/02 06:07:17;;;;;;;67.40;32.40;;;;;;;-144.73;100.00;54674.53;4965370;28;20027;-75
2023/12/02 06:09:43;;;;;;;68.30;32.10;;;;;;;-144.73;100.00;54674.53;4967339;28;20034;-75
2023/12/02 06:12:09;;;;;;;79.33;34.27;;;;;;;-144.73;100.00;54678.63;4986641;28;20038;-74
2023/12/02 06:14:35;;;;;;;69.17;31.80;;;;;;;-144.73;100.00;54656.06;4967131;28;20066;-74
2023/12/02 06:17:00;;;;;;;78.30;34.60;;;;;;;-144.73;100.00;54703.28;4951206;28;20047;-74
2023/12/02 06:19:25;;;;;;;76.50;34.50;;;;;;;-144.73;100.00;54625.28;4959438;28;20502;-74
2023/12/02 06:21:51;;;;;;;76.53;32.97;;;;;;;-144.73;100.00;54670.44;4957871;28;20046;-74
2023/12/02 06:24:17;;;;;;;67.80;30.17;;;;;;;-144.73;100.00;54670.44;4959455;28;20046;-74
2023/12/02 06:26:42;;;;;;;67.70;30.03;;;;;;;-144.73;100.00;54686.84;4954357;28;20372;-75
2023/12/02 06:29:07;;;;;;;66.07;31.20;;;;;;;-144.73;100.00;54670.44;4953247;28;20134;-75
2023/12/02 06:31:33;;;;;;;69.85;32.40;;;;;;;-144.73;100.00;54651.97;4983602;28;20450;-75
2023/12/02 06:33:59;;;;;;;77.87;33.87;;;;;;;-144.73;100.00;54678.63;4954921;28;20055;-75
2023/12/02 06:36:24;;;;;;;65.93;28.47;;;;;;;-144.73;100.00;54654.00;4953015;28;20031;-74
2023/12/02 06:38:50;;;;;;;68.38;31.23;;;;;;;-144.73;100.00;54682.75;4950474;28;20094;-74
2023/12/02 06:41:15;;;;;;;73.43;32.07;;;;;;;-144.73;100.00;54695.06;4957689;28;20069;-74
2023/12/02 06:43:41;;;;;;;71.90;31.47;;;;;;;-144.73;100.00;54592.44;4954049;28;20055;-74
2023/12/02 06:46:07;;;;;;;71.27;30.10;;;;;;;-144.73;100.00;54654.00;4953565;28;20112;-75
2023/12/02 06:48:32;;;;;;;55.92;26.80;;;;;;;-144.73;100.00;54674.53;4961892;28;20026;-75
2023/12/02 06:50:58;;;;;;;74.65;29.45;;;;;;;-144.73;100.00;54645.78;4965037;28;20030;-74
2023/12/02 06:53:23;;;;;;;78.43;32.00;;;;;;;-144.73;100.00;54723.81;4952415;28;20063;-74
2023/12/02 06:55:48;;;;;;;63.17;28.77;;;;;;;-144.73;100.00;54703.28;4955493;28;20478;-74
2023/12/02 06:58:14;;;;;;;68.45;29.65;;;;;;;-144.73;100.00;54662.22;4959076;28;20063;-74
2023/12/02 07:00:39;;;;;;;67.75;28.77;;;;;;;-144.73;100.00;54654.00;4961738;28;20019;-74
2023/12/02 07:03:05;;;;;;;66.43;29.58;;;;;;;-144.73;100.00;54674.53;4957142;28;20035;-74
2023/12/02 07:05:30;;;;;;;65.93;30.42;;;;;;;-144.73;100.00;54690.97;4961943;28;20031;-74
2023/12/02 07:07:55;;;;;;;66.38;28.75;;;;;;;-144.73;100.00;54633.47;4949511;28;20032;-74
2023/12/02 07:10:21;;;;;;;65.57;28.98;;;;;;;-144.73;100.00;54637.59;4945454;28;20067;-74
2023/12/02 07:12:47;;;;;;;68.80;31.42;;;;;;;-144.73;100.00;54674.53;4949400;28;20097;-75
2023/12/02 07:15:12;;;;;;;59.33;28.00;;;;;;;-144.73;100.00;54670.44;4951172;28;20474;-73
2023/12/02 07:17:38;;;;;;;72.55;32.72;;;;;;;-144.73;100.00;54674.53;4964750;28;20037;-74
2023/12/02 07:20:03;;;;;;;70.65;30.80;;;;;;;-144.73;100.00;54676.59;4970611;28;20057;-75
2023/12/02 07:22:29;;;;;;;72.37;31.43;;;;;;;-144.73;100.00;54658.13;4965456;28;20030;-75
2023/12/02 07:24:54;;;;;;;62.77;29.63;;;;;;;-144.73;100.00;54682.75;4959272;28;20031;-75
2023/12/02 07:27:19;;;;;;;68.00;29.67;;;;;;;-144.73;100.00;54619.13;4957861;28;20060;-76
2023/12/02 07:29:45;;;;;;;58.85;29.02;;;;;;;-144.73;100.00;54690.97;4954142;28;20094;-75
2023/12/02 07:32:10;;;;;;;67.25;28.45;;;;;;;-144.73;100.00;54695.06;4954520;28;20023;-75
2023/12/02 07:34:36;;;;;;;72.40;32.00;;;;;;;-144.73;100.00;54649.91;4944554;28;20150;-75
2023/12/02 07:37:02;;;;;;;73.70;30.60;;;;;;;-144.73;100.00;54637.59;4949725;28;20023;-75
2023/12/02 07:39:27;;;;;;;72.70;31.17;;;;;;;-144.73;100.00;54621.16;4959995;28;20651;-75
2023/12/02 07:41:53;;;;;;;73.13;32.60;;;;;;;-144.73;100.00;54625.28;4950158;28;20055;-75
2023/12/02 07:44:18;;;;;;;79.87;34.13;;;;;;;-144.73;100.00;54658.13;4957825;28;20043;-75
2023/12/02 07:46:44;;;;;;;72.33;31.80;;;;;;;-144.73;100.00;54674.53;4958349;28;20074;-75
2023/12/02 07:49:09;;;;;;;87.20;38.42;;;;;;;-144.73;100.00;54615.00;4967935;28;20047;-74
2023/12/02 07:51:34;;;;;;;78.30;32.83;;;;;;;-144.73;100.00;54645.78;4962766;28;20046;-75
2023/12/02 07:54:00;;;;;;;85.10;41.35;;;;;;;-144.73;100.00;54711.47;4968058;28;20050;-74
2023/12/02 07:56:29;;;;;;;83.15;35.20;;;;;;;-144.73;100.00;54690.97;4964862;28;20454;-76
2023/12/02 07:59:03;;;;;;;68.87;29.43;;;;;;;-144.73;100.00;54682.75;4955019;28;20123;-75
2023/12/02 08:01:42;;;;;;;74.63;30.87;;;;;;;-144.73;100.00;54658.13;4955251;28;20525;-75
2023/12/02 08:04:07;;;;;;;76.73;32.70;;;;;;;-144.73;100.00;54670.44;4952582;28;20073;-74
2023/12/02 08:06:33;;;;;;;73.60;30.93;;;;;;;-144.73;100.00;54678.63;4950333;28;20459;-75
2023/12/02 08:08:58;;;;;;;84.57;34.90;;;;;;;-144.73;100.00;54695.06;4961153;28;20040;-74
2023/12/02 08:11:24;;;;;;;81.95;35.25;;;;;;;-144.73;100.00;54656.06;4949936;28;20110;-75
2023/12/02 08:13:49;;;;;;;86.40;38.25;;;;;;;-144.73;100.00;54686.84;4955840;28;20043;-75
2023/12/02 08:16:15;;;;;;;63.47;29.77;;;;;;;-144.73;100.00;54670.44;4949576;28;20104;-75
2023/12/02 08:18:40;;;;;;;58.88;27.17;;;;;;;-144.73;100.00;54678.63;4957285;28;20034;-75
2023/12/02 08:21:06;;;;;;;59.33;28.45;;;;;;;-144.73;100.00;54670.44;4961068;28;20030;-74
2023/12/02 08:23:31;;;;;;;58.53;27.42;;;;;;;-144.73;100.00;54662.22;4968096;28;20102;-75
2023/12/02 08:25:56;;;;;;;69.97;31.52;;;;;;;-144.73;100.00;54672.47;4963726;28;20442;-75
2023/12/02 08:28:29;;;;;;;67.43;29.55;;;;;;;-144.73;100.00;54678.63;4964439;28;20114;-75
2023/12/02 08:30:55;;;;;;;65.13;31.02;;;;;;;-144.73;100.00;54637.59;4958024;28;20031;-75
2023/12/02 08:33:23;;;;;;;79.17;33.53;;;;;;;-144.73;100.00;54654.00;4961945;28;20093;-76
2023/12/02 08:35:48;;;;;;;77.30;33.53;;;;;;;-144.73;100.00;54651.97;4963461;28;20062;-74
2023/12/02 08:38:14;;;;;;;83.93;33.73;;;;;;;-144.73;100.00;54670.44;4964045;28;20126;-75
2023/12/02 08:40:39;;;;;;;86.03;35.07;;;;;;;-144.73;100.00;54680.69;4965899;28;20038;-75
2023/12/02 08:43:05;;;;;;;81.38;34.75;;;;;;;-144.73;100.00;54662.22;4966032;28;20039;-75
2023/12/02 08:45:30;;;;;;;67.83;29.87;;;;;;;-144.73;100.00;54699.16;4961901;28;20069;-73
2023/12/02 08:47:56;;;;;;;72.90;33.57;;;;;;;-144.73;100.00;54641.69;4950434;28;20043;-72
2023/12/02 08:50:21;;;;;;;72.30;33.77;;;;;;;-144.73;100.00;54670.44;4951810;28;20027;-73
2023/12/02 08:52:46;;;;;;;64.88;29.98;;;;;;;-144.73;100.00;54658.13;4949221;28;20500;-73
2023/12/02 08:55:12;;;;;;;62.30;28.80;;;;;;;-144.73;100.00;54678.63;4950366;28;20031;-73
2023/12/02 08:57:37;;;;;;;69.43;32.80;;;;;;;-144.73;100.00;54674.53;4947913;28;20081;-72
2023/12/02 09:00:04;;;;;;;68.87;29.70;;;;;;;-144.73;100.00;54674.53;4951068;28;20027;-72
2023/12/02 09:02:30;;;;;;;65.97;30.97;;;;;;;-144.73;100.00;54670.44;4945770;28;20023;-72
2023/12/02 09:04:55;;;;;;;65.77;31.37;;;;;;;-144.73;100.00;54662.22;4944737;28;20118;-72
2023/12/02 09:07:21;;;;;;;65.00;30.47;;;;;;;-144.73;100.00;54690.97;4951582;28;20027;-72
2023/12/02 09:09:46;;;;;;;69.57;32.03;;;;;;;-144.73;100.00;54641.69;4961491;28;20031;-72
2023/12/02 09:12:11;;;;;;;71.40;31.00;;;;;;;-144.73;100.00;54662.22;4955813;28;20031;-73
2023/12/02 09:14:37;;;;;;;66.07;31.33;;;;;;;-144.73;100.00;54645.78;4960479;28;20042;-72
2023/12/02 09:17:04;;;;;;;64.88;29.60;;;;;;;-144.73;100.00;54662.22;4956541;28;20039;-72
2023/12/02 09:19:29;;;;;;;61.42;28.15;;;;;;;-144.73;100.00;54662.22;4948184;28;20102;-72
2023/12/02 09:21:54;;;;;;;59.53;31.00;;;;;;;-144.73;100.00;54674.53;4945413;28;20108;-72
2023/12/02 09:24:37;;;;;;;62.70;28.70;;;;;;;-144.73;100.00;54695.06;4951701;28;20039;-73
2023/12/02 09:27:06;;;;;;;56.72;27.73;;;;;;;-144.73;100.00;54633.47;4958466;28;20126;-72
2023/12/02 09:29:35;;;;;;;61.88;29.63;;;;;;;-144.73;100.00;54658.13;4952061;28;20090;-72
2023/12/02 09:32:40;;;;;;;71.53;32.00;;;;;;;-144.73;100.00;54709.44;4959535;28;20023;-73
2023/12/02 09:35:06;;;;;;;79.40;38.07;;;;;;;-144.73;100.00;54662.22;4946688;28;20054;-73
2023/12/02 09:37:57;;;;;;;68.33;30.33;;;;;;;-144.73;100.00;54641.69;4962304;28;20500;-72
2023/12/02 09:40:45;;;;;;;63.10;31.35;;;;;;;-144.73;100.00;54715.59;4966355;28;20047;-72
2023/12/02 09:43:24;;;;;;;63.33;31.20;;;;;;;-144.73;100.00;54678.63;4975578;28;20059;-71
2023/12/02 09:45:56;;;;;;;68.05;29.77;;;;;;;-144.73;100.00;54658.13;4954833;28;20054;-71
2023/12/02 09:48:24;;;;;;;81.70;35.45;;;;;;;-144.73;100.00;54674.53;4980237;28;20041;-71
2023/12/02 09:51:03;;;;;;;73.10;34.47;;;;;;;-144.73;100.00;54637.59;4955135;28;20023;-71
2023/12/02 09:53:56;;;;;;;70.43;33.80;;;;;;;-144.73;100.00;54654.00;4949752;28;20502;-71
2023/12/02 09:56:26;;;;;;;76.85;34.25;;;;;;;-144.73;100.00;54676.59;4950224;28;20027;-71
2023/12/02 09:59:08;;;;;;;64.82;29.92;;;;;;;-144.73;100.00;54727.91;4955800;28;20039;-71
2023/12/02 10:01:44;;;;;;;70.32;33.17;;;;;;;-144.73;100.00;54690.97;4945598;28;20024;-71
2023/12/02 10:04:51;;;;;;;67.68;34.15;;;;;;;-144.73;100.00;54654.00;4948701;28;20119;-71
2023/12/02 10:07:34;;;;;;;64.28;29.77;;;;;;;-144.73;100.00;54645.78;4919217;28;20403;-71
2023/12/02 10:10:13;;;;;;;67.22;32.15;;;;;;;-144.73;100.00;54670.44;4933684;29;20127;-71
2023/12/02 10:13:12;;;;;;;64.68;31.77;;;;;;;-144.73;100.00;54637.59;4929272;28;20023;-72
2023/12/02 10:15:41;;;;;;;59.53;28.95;;;;;;;-144.73;100.00;54670.44;4979743;28;20031;-72
2023/12/02 10:18:15;;;;;;;65.13;32.10;;;;;;;-144.73;100.00;54670.44;4964271;28;20486;-72
2023/12/02 10:20:42;;;;;;;64.30;29.77;;;;;;;-144.73;100.00;54649.91;4960610;28;20015;-72
2023/12/02 10:23:31;;;;;;;62.63;29.88;;;;;;;-144.73;100.00;54674.53;4960983;28;20031;-71
2023/12/02 10:26:16;;;;;;;69.80;33.53;;;;;;;-144.73;100.00;54670.44;4954755;28;20421;-73
2023/12/02 10:28:50;;;;;;;63.58;32.10;;;;;;;-144.73;100.00;54658.13;4951018;28;20035;-72
2023/12/02 10:31:25;;;;;;;74.37;34.27;;;;;;;-144.73;100.00;54656.06;4956341;28;20027;-72
2023/12/02 10:34:09;;;;;;;81.75;39.05;;;;;;;-144.73;100.00;54629.38;4979172;28;20637;-72
2023/12/02 10:36:36;;;;;;;71.15;33.88;;;;;;;-144.73;100.00;54693.00;4961327;28;20027;-71
2023/12/02 10:39:09;;;;;;;61.15;29.70;;;;;;;-144.73;100.00;54625.28;4961831;28;20028;-72
2023/12/02 10:41:54;;;;;;;73.82;33.88;;;;;;;-144.73;100.00;54633.47;4949945;28;20011;-71
2023/12/02 10:44:24;;;;;;;69.90;32.97;;;;;;;-144.73;100.00;54629.38;4952327;28;20396;-72
2023/12/02 10:46:52;;;;;;;65.68;30.75;;;;;;;-144.73;100.00;54703.28;4951443;28;20081;-72
2023/12/02 10:49:18;;;;;;;65.05;32.85;;;;;;;-144.73;100.00;54654.00;4955551;28;20031;-72
2023/12/02 10:51:46;;;;;;;64.40;30.67;;;;;;;-144.73;100.00;54639.63;4950066;28;20027;-72
2023/12/02 10:54:16;;;;;;;64.07;30.98;;;;;;;-144.73;100.00;54678.63;4950382;28;20058;-72
2023/12/02 10:56:45;;;;;;;57.30;26.85;;;;;;;-144.73;100.00;54699.16;4958568;28;20101;-73
2023/12/02 10:59:11;;;;;;;55.08;27.83;;;;;;;-144.73;100.00;54674.53;4955065;28;20078;-72